createdAt,value
2018-01-02T00:03:40.975Z,6.20
2018-01-02T00:08:55.739Z,6.20
2018-01-02T00:11:32.577Z,6.20
2018-01-02T00:16:46.603Z,6.30
2018-01-02T00:19:21.776Z,6.30
2018-01-02T00:21:55.430Z,6.30
2018-01-02T00:27:05.321Z,6.20
2018-01-02T00:29:39.619Z,6.30
2018-01-02T00:32:11.232Z,6.30
2018-01-02T00:34:47.385Z,6.30
2018-01-02T00:37:22.515Z,6.30
2018-01-02T00:39:59.113Z,6.30
2018-01-02T00:42:31.693Z,6.30
2018-01-02T00:45:12.138Z,6.30
2018-01-02T00:48:05.668Z,6.30
2018-01-02T00:53:14.171Z,6.40
2018-01-02T00:55:50.147Z,6.40
2018-01-02T00:58:22.225Z,6.30
2018-01-02T01:01:04.224Z,6.30
2018-01-02T01:18:09.958Z,6.40
2018-01-02T01:26:44.822Z,6.40
2018-01-02T01:29:16.108Z,6.40
2018-01-02T01:31:48.554Z,6.30
2018-01-02T01:37:27.424Z,6.30
2018-01-02T01:45:48.791Z,6.20
2018-01-02T01:48:23.326Z,6.20
2018-01-02T01:53:39.242Z,6.20
2018-01-02T01:56:21.509Z,6.20
2018-01-02T01:59:21.264Z,6.20
2018-01-02T02:05:08.693Z,6.20
2018-01-02T02:07:46.725Z,6.10
2018-01-02T02:13:15.759Z,6.10
2018-01-02T02:18:40.834Z,6.10
2018-01-02T02:21:17.425Z,6.00
2018-01-02T02:23:49.887Z,6.00
2018-01-02T02:26:22.685Z,6.00
2018-01-02T02:28:55.748Z,6.10
2018-01-02T02:31:27.902Z,6.00
2018-01-02T02:34:15.941Z,6.00
2018-01-02T02:36:46.545Z,5.90
2018-01-02T02:39:16.910Z,5.80
2018-01-02T02:41:52.831Z,5.80
2018-01-02T02:44:24.252Z,5.90
2018-01-02T02:46:55.808Z,5.90
2018-01-02T02:49:29.750Z,6.00
2018-01-02T02:52:01.551Z,5.90
2018-01-02T02:54:32.536Z,6.00
2018-01-02T02:57:03.523Z,6.00
2018-01-02T02:59:34.532Z,6.00
2018-01-02T03:02:05.647Z,6.00
2018-01-02T03:04:37.175Z,6.00
2018-01-02T03:07:08.446Z,6.00
2018-01-02T03:09:39.643Z,6.00
2018-01-02T03:12:12.526Z,6.00
2018-01-02T03:14:43.268Z,6.00
2018-01-02T03:17:15.117Z,6.10
2018-01-02T03:19:46.940Z,6.10
2018-01-02T03:22:22.273Z,6.10
2018-01-02T03:25:02.070Z,6.00
2018-01-02T03:27:32.597Z,6.00
2018-01-02T03:30:04.641Z,6.00
2018-01-02T03:32:35.107Z,6.00
2018-01-02T03:35:06.862Z,5.90
2018-01-02T03:37:37.587Z,5.90
2018-01-02T03:40:09.049Z,6.00
2018-01-02T03:42:41.914Z,6.00
2018-01-02T03:45:12.941Z,5.90
2018-01-02T03:47:46.350Z,5.90
2018-01-02T03:50:17.359Z,5.90
2018-01-02T03:52:55.081Z,5.90
2018-01-02T03:55:26.773Z,5.80
2018-01-02T03:57:59.184Z,5.70
2018-01-02T04:00:37.819Z,5.70
2018-01-02T04:03:08.910Z,5.80
2018-01-02T04:05:44.508Z,5.90
2018-01-02T04:08:15.127Z,6.00
2018-01-02T04:10:46.780Z,6.00
2018-01-02T04:13:19.765Z,6.00
2018-01-02T04:15:51.093Z,6.10
2018-01-02T04:18:23.650Z,6.10
2018-01-02T04:20:54.539Z,6.10
2018-01-02T04:23:26.137Z,6.20
2018-01-02T04:26:00.155Z,6.20
2018-01-02T04:28:33.284Z,6.20
2018-01-02T04:31:08.572Z,6.20
2018-01-02T04:33:41.470Z,6.20
2018-01-02T04:36:14.894Z,6.30
2018-01-02T04:38:49.930Z,6.30
2018-01-02T04:41:20.204Z,6.30
2018-01-02T04:43:51.734Z,6.30
2018-01-02T04:46:22.390Z,6.30
2018-01-02T04:48:55.487Z,6.30
